sensor_id;sensor_type;location;lat;lon;timestamp;pressure;altitude;pressure_sealevel;temperature;humidity
66396;BME280;53207;51.378;-1.342;2023-05-23T00:01:13;101223.81;;;26.41;32.52
66396;BME280;53207;51.378;-1.342;2023-05-23T00:03:40;101226.10;;;26.39;32.53
66396;BME280;53207;51.378;-1.342;2023-05-23T00:06:07;101233.34;;;26.38;32.55
66396;BME280;53207;51.378;-1.342;2023-05-23T00:08:35;101232.08;;;26.39;32.51
66396;BME280;53207;51.378;-1.342;2023-05-23T00:11:02;101226.85;;;26.36;32.52
66396;BME280;53207;51.378;-1.342;2023-05-23T00:13:29;101227.10;;;26.35;32.54
66396;BME280;53207;51.378;-1.342;2023-05-23T00:15:57;101224.34;;;26.40;32.42
66396;BME280;53207;51.378;-1.342;2023-05-23T00:18:24;101227.39;;;26.32;32.53
66396;BME280;53207;51.378;-1.342;2023-05-23T00:20:51;101222.94;;;26.34;32.48
66396;BME280;53207;51.378;-1.342;2023-05-23T00:23:18;101225.53;;;26.31;32.47
66396;BME280;53207;51.378;-1.342;2023-05-23T00:25:46;101224.44;;;26.32;32.44
66396;BME280;53207;51.378;-1.342;2023-05-23T00:28:13;101219.92;;;26.27;32.49
66396;BME280;53207;51.378;-1.342;2023-05-23T00:30:40;101219.85;;;26.26;32.51
66396;BME280;53207;51.378;-1.342;2023-05-23T00:33:07;101220.34;;;26.22;32.55
66396;BME280;53207;51.378;-1.342;2023-05-23T00:35:35;101226.72;;;26.48;32.47
66396;BME280;53207;51.378;-1.342;2023-05-23T00:38:02;101227.76;;;26.46;32.48
66396;BME280;53207;51.378;-1.342;2023-05-23T00:40:29;101227.60;;;26.22;32.48
66396;BME280;53207;51.378;-1.342;2023-05-23T00:42:57;101225.35;;;26.17;32.53
66396;BME280;53207;51.378;-1.342;2023-05-23T00:45:24;101225.29;;;26.41;32.51
66396;BME280;53207;51.378;-1.342;2023-05-23T00:47:51;101227.31;;;26.18;32.47
66396;BME280;53207;51.378;-1.342;2023-05-23T00:50:20;101227.30;;;26.11;32.57
66396;BME280;53207;51.378;-1.342;2023-05-23T00:52:48;101227.12;;;26.15;32.51
66396;BME280;53207;51.378;-1.342;2023-05-23T00:55:15;101228.34;;;26.32;32.54
66396;BME280;53207;51.378;-1.342;2023-05-23T00:57:43;101227.36;;;26.09;32.53
66396;BME280;53207;51.378;-1.342;2023-05-23T01:00:11;101221.70;;;26.08;32.54
66396;BME280;53207;51.378;-1.342;2023-05-23T01:02:42;101222.74;;;26.02;32.60
66396;BME280;53207;51.378;-1.342;2023-05-23T01:05:10;101224.06;;;26.32;32.46
66396;BME280;53207;51.378;-1.342;2023-05-23T01:07:38;101223.91;;;26.28;32.48
66396;BME280;53207;51.378;-1.342;2023-05-23T01:10:06;101227.86;;;26.28;32.49
66396;BME280;53207;51.378;-1.342;2023-05-23T01:12:40;101227.05;;;26.08;32.43
66396;BME280;53207;51.378;-1.342;2023-05-23T01:15:14;101226.42;;;26.03;32.45
66396;BME280;53207;51.378;-1.342;2023-05-23T01:17:49;101229.14;;;26.02;32.46
66396;BME280;53207;51.378;-1.342;2023-05-23T01:20:21;101225.55;;;25.97;32.52
66396;BME280;53207;51.378;-1.342;2023-05-23T01:23:09;101229.82;;;26.20;32.49
66396;BME280;53207;51.378;-1.342;2023-05-23T01:25:49;101229.58;;;26.01;32.45
66396;BME280;53207;51.378;-1.342;2023-05-23T01:28:27;101227.73;;;26.21;32.45
66396;BME280;53207;51.378;-1.342;2023-05-23T01:30:57;101227.21;;;25.95;32.47
66396;BME280;53207;51.378;-1.342;2023-05-23T01:33:28;101231.68;;;26.11;32.53
66396;BME280;53207;51.378;-1.342;2023-05-23T01:35:57;101235.82;;;25.90;32.50
66396;BME280;53207;51.378;-1.342;2023-05-23T01:38:27;101235.59;;;25.88;32.49
66396;BME280;53207;51.378;-1.342;2023-05-23T01:40:54;101236.01;;;26.34;32.45
66396;BME280;53207;51.378;-1.342;2023-05-23T01:43:22;101236.08;;;26.01;32.55
66396;BME280;53207;51.378;-1.342;2023-05-23T01:45:51;101233.49;;;26.00;32.55
66396;BME280;53207;51.378;-1.342;2023-05-23T01:48:20;101227.59;;;25.76;32.57
66396;BME280;53207;51.378;-1.342;2023-05-23T01:50:49;101228.09;;;26.24;32.50
66396;BME280;53207;51.378;-1.342;2023-05-23T01:53:19;101231.46;;;26.19;32.54
66396;BME280;53207;51.378;-1.342;2023-05-23T01:55:47;101233.78;;;26.18;32.55
66396;BME280;53207;51.378;-1.342;2023-05-23T01:58:14;101233.28;;;26.16;32.54
66396;BME280;53207;51.378;-1.342;2023-05-23T02:00:41;101234.82;;;25.90;32.56
66396;BME280;53207;51.378;-1.342;2023-05-23T02:03:09;101233.39;;;26.14;32.49
66396;BME280;53207;51.378;-1.342;2023-05-23T02:05:36;101229.61;;;25.85;32.58
66396;BME280;53207;51.378;-1.342;2023-05-23T02:08:03;101228.55;;;26.08;32.57
66396;BME280;53207;51.378;-1.342;2023-05-23T02:10:30;101233.02;;;25.85;32.57
66396;BME280;53207;51.378;-1.342;2023-05-23T02:12:57;101237.92;;;25.64;32.52
66396;BME280;53207;51.378;-1.342;2023-05-23T02:15:24;101238.49;;;26.04;32.54
66396;BME280;53207;51.378;-1.342;2023-05-23T02:17:52;101240.22;;;25.92;32.67
66396;BME280;53207;51.378;-1.342;2023-05-23T02:20:19;101242.89;;;25.95;32.60
66396;BME280;53207;51.378;-1.342;2023-05-23T02:22:46;101244.95;;;25.72;32.58
66396;BME280;53207;51.378;-1.342;2023-05-23T02:25:14;101246.96;;;25.89;32.65
66396;BME280;53207;51.378;-1.342;2023-05-23T02:27:41;101246.96;;;25.69;32.57
66396;BME280;53207;51.378;-1.342;2023-05-23T02:30:09;101249.70;;;25.69;32.54
66396;BME280;53207;51.378;-1.342;2023-05-23T02:32:36;101251.04;;;25.86;32.58
66396;BME280;53207;51.378;-1.342;2023-05-23T02:35:04;101247.86;;;25.86;32.57
66396;BME280;53207;51.378;-1.342;2023-05-23T02:37:31;101247.24;;;25.84;32.56
66396;BME280;53207;51.378;-1.342;2023-05-23T02:39:58;101247.41;;;25.66;32.49
66396;BME280;53207;51.378;-1.342;2023-05-23T02:42:26;101250.00;;;25.85;32.51
66396;BME280;53207;51.378;-1.342;2023-05-23T02:44:53;101255.54;;;25.77;32.58
66396;BME280;53207;51.378;-1.342;2023-05-23T02:47:20;101253.83;;;25.75;32.58
66396;BME280;53207;51.378;-1.342;2023-05-23T02:49:48;101256.53;;;25.78;32.53
66396;BME280;53207;51.378;-1.342;2023-05-23T02:52:15;101257.51;;;25.74;32.55
66396;BME280;53207;51.378;-1.342;2023-05-23T02:54:42;101260.72;;;25.51;32.55
66396;BME280;53207;51.378;-1.342;2023-05-23T02:57:09;101265.92;;;25.63;32.65
66396;BME280;53207;51.378;-1.342;2023-05-23T02:59:37;101264.49;;;25.67;32.58
66396;BME280;53207;51.378;-1.342;2023-05-23T03:02:04;101266.52;;;25.67;32.57
66396;BME280;53207;51.378;-1.342;2023-05-23T03:04:31;101264.64;;;25.63;32.57
66396;BME280;53207;51.378;-1.342;2023-05-23T03:06:58;101262.06;;;25.64;32.53
66396;BME280;53207;51.378;-1.342;2023-05-23T03:09:26;101266.04;;;25.55;32.59
66396;BME280;53207;51.378;-1.342;2023-05-23T03:11:53;101264.53;;;25.06;32.64
66396;BME280;53207;51.378;-1.342;2023-05-23T03:14:20;101263.20;;;25.60;32.50
66396;BME280;53207;51.378;-1.342;2023-05-23T03:16:47;101264.04;;;25.54;32.54
66396;BME280;53207;51.378;-1.342;2023-05-23T03:19:15;101265.55;;;25.53;32.56
66396;BME280;53207;51.378;-1.342;2023-05-23T03:21:42;101261.07;;;25.53;32.51
66396;BME280;53207;51.378;-1.342;2023-05-23T03:24:09;101263.31;;;25.39;32.64
66396;BME280;53207;51.378;-1.342;2023-05-23T03:26:37;101267.71;;;25.48;32.52
66396;BME280;53207;51.378;-1.342;2023-05-23T03:29:04;101269.64;;;25.41;32.58
66396;BME280;53207;51.378;-1.342;2023-05-23T03:31:31;101268.49;;;25.40;32.56
66396;BME280;53207;51.378;-1.342;2023-05-23T03:33:58;101265.93;;;25.37;32.57
66396;BME280;53207;51.378;-1.342;2023-05-23T03:36:26;101265.99;;;25.64;32.56
66396;BME280;53207;51.378;-1.342;2023-05-23T03:38:53;101262.98;;;25.63;32.54
66396;BME280;53207;51.378;-1.342;2023-05-23T03:41:20;101263.28;;;25.28;32.63
66396;BME280;53207;51.378;-1.342;2023-05-23T03:43:47;101261.28;;;25.53;32.59
66396;BME280;53207;51.378;-1.342;2023-05-23T03:46:15;101261.10;;;24.82;32.59
66396;BME280;53207;51.378;-1.342;2023-05-23T03:48:42;101258.79;;;25.55;32.54
66396;BME280;53207;51.378;-1.342;2023-05-23T03:51:09;101258.24;;;25.25;32.57
66396;BME280;53207;51.378;-1.342;2023-05-23T03:53:36;101257.12;;;25.23;32.54
66396;BME280;53207;51.378;-1.342;2023-05-23T03:56:04;101255.37;;;25.23;32.53
66396;BME280;53207;51.378;-1.342;2023-05-23T03:58:31;101252.76;;;25.20;32.54
66396;BME280;53207;51.378;-1.342;2023-05-23T04:00:58;101255.57;;;25.16;32.56
66396;BME280;53207;51.378;-1.342;2023-05-23T04:03:26;101254.68;;;25.38;32.59
66396;BME280;53207;51.378;-1.342;2023-05-23T04:05:53;101252.93;;;25.15;32.53
66396;BME280;53207;51.378;-1.342;2023-05-23T04:08:20;101253.31;;;25.11;32.55
66396;BME280;53207;51.378;-1.342;2023-05-23T04:10:47;101253.41;;;25.11;32.55
66396;BME280;53207;51.378;-1.342;2023-05-23T04:13:15;101254.12;;;25.08;32.54
66396;BME280;53207;51.378;-1.342;2023-05-23T04:15:42;101259.68;;;25.00;32.64
66396;BME280;53207;51.378;-1.342;2023-05-23T04:18:09;101264.94;;;25.26;32.61
66396;BME280;53207;51.378;-1.342;2023-05-23T04:20:36;101265.08;;;25.32;32.52
66396;BME280;53207;51.378;-1.342;2023-05-23T04:23:04;101265.24;;;25.03;32.50
66396;BME280;53207;51.378;-1.342;2023-05-23T04:25:31;101274.47;;;25.23;32.55
66396;BME280;53207;51.378;-1.342;2023-05-23T04:27:58;101275.41;;;25.28;32.47
66396;BME280;53207;51.378;-1.342;2023-05-23T04:30:25;101278.02;;;25.19;32.55
66396;BME280;53207;51.378;-1.342;2023-05-23T04:32:52;101274.23;;;25.19;32.54
66396;BME280;53207;51.378;-1.342;2023-05-23T04:35:19;101275.99;;;24.92;32.53
66396;BME280;53207;51.378;-1.342;2023-05-23T04:37:47;101279.72;;;25.39;32.51
66396;BME280;53207;51.378;-1.342;2023-05-23T04:40:14;101283.84;;;25.13;32.54
66396;BME280;53207;51.378;-1.342;2023-05-23T04:42:41;101286.53;;;25.15;32.48
66396;BME280;53207;51.378;-1.342;2023-05-23T04:45:09;101291.61;;;24.84;32.51
66396;BME280;53207;51.378;-1.342;2023-05-23T04:47:36;101299.82;;;25.28;32.55
66396;BME280;53207;51.378;-1.342;2023-05-23T04:50:05;101303.55;;;25.22;32.59
66396;BME280;53207;51.378;-1.342;2023-05-23T04:52:32;101307.21;;;25.04;32.54
66396;BME280;53207;51.378;-1.342;2023-05-23T04:54:59;101306.40;;;25.06;32.48
66396;BME280;53207;51.378;-1.342;2023-05-23T04:57:27;101307.70;;;25.04;32.50
66396;BME280;53207;51.378;-1.342;2023-05-23T04:59:54;101305.20;;;25.26;32.47
66396;BME280;53207;51.378;-1.342;2023-05-23T05:02:21;101309.86;;;25.02;32.46
66396;BME280;53207;51.378;-1.342;2023-05-23T05:04:48;101309.93;;;24.98;32.45
66396;BME280;53207;51.378;-1.342;2023-05-23T05:07:16;101311.94;;;24.95;32.48
66396;BME280;53207;51.378;-1.342;2023-05-23T05:09:43;101310.78;;;25.12;32.53
66396;BME280;53207;51.378;-1.342;2023-05-23T05:12:10;101312.79;;;25.12;32.51
66396;BME280;53207;51.378;-1.342;2023-05-23T05:14:37;101316.94;;;24.88;32.51
66396;BME280;53207;51.378;-1.342;2023-05-23T05:17:05;101316.82;;;24.87;32.51
66396;BME280;53207;51.378;-1.342;2023-05-23T05:19:32;101318.68;;;24.85;32.54
66396;BME280;53207;51.378;-1.342;2023-05-23T05:21:59;101320.85;;;24.99;32.60
66396;BME280;53207;51.378;-1.342;2023-05-23T05:24:27;101325.14;;;25.02;32.56
66396;BME280;53207;51.378;-1.342;2023-05-23T05:26:54;101325.04;;;24.83;32.52
66396;BME280;53207;51.378;-1.342;2023-05-23T05:29:22;101327.76;;;24.79;32.55
66396;BME280;53207;51.378;-1.342;2023-05-23T05:31:49;101327.66;;;24.75;32.59
66396;BME280;53207;51.378;-1.342;2023-05-23T05:34:16;101326.79;;;25.01;32.52
66396;BME280;53207;51.378;-1.342;2023-05-23T05:36:44;101330.40;;;24.97;32.55
66396;BME280;53207;51.378;-1.342;2023-05-23T05:39:11;101332.71;;;24.88;32.65
66396;BME280;53207;51.378;-1.342;2023-05-23T05:41:38;101334.32;;;24.80;32.76
66396;BME280;53207;51.378;-1.342;2023-05-23T05:44:06;101332.05;;;24.62;32.77
66396;BME280;53207;51.378;-1.342;2023-05-23T05:46:33;101329.09;;;24.56;32.88
66396;BME280;53207;51.378;-1.342;2023-05-23T05:49:00;101329.23;;;24.80;33.03
66396;BME280;53207;51.378;-1.342;2023-05-23T05:51:27;101327.69;;;24.79;33.21
66396;BME280;53207;51.378;-1.342;2023-05-23T05:53:55;101326.67;;;24.80;33.15
66396;BME280;53207;51.378;-1.342;2023-05-23T05:56:22;101328.29;;;24.29;33.18
66396;BME280;53207;51.378;-1.342;2023-05-23T05:58:49;101330.99;;;24.83;33.12
66396;BME280;53207;51.378;-1.342;2023-05-23T06:01:16;101333.80;;;24.72;33.39
66396;BME280;53207;51.378;-1.342;2023-05-23T06:03:44;101336.59;;;24.72;33.41
66396;BME280;53207;51.378;-1.342;2023-05-23T06:06:11;101336.28;;;24.51;33.33
66396;BME280;53207;51.378;-1.342;2023-05-23T06:08:39;101336.87;;;24.51;33.54
66396;BME280;53207;51.378;-1.342;2023-05-23T06:11:06;101336.90;;;24.33;33.52
66396;BME280;53207;51.378;-1.342;2023-05-23T06:13:34;101338.23;;;24.80;33.50
66396;BME280;53207;51.378;-1.342;2023-05-23T06:16:01;101340.70;;;24.51;33.93
66396;BME280;53207;51.378;-1.342;2023-05-23T06:18:28;101340.16;;;24.58;33.88
66396;BME280;53207;51.378;-1.342;2023-05-23T06:20:56;101341.83;;;24.79;34.02
66396;BME280;53207;51.378;-1.342;2023-05-23T06:23:23;101336.90;;;24.90;33.18
66396;BME280;53207;51.378;-1.342;2023-05-23T06:25:50;101337.31;;;25.10;33.30
66396;BME280;53207;51.378;-1.342;2023-05-23T06:28:17;101338.56;;;25.02;34.21
66396;BME280;53207;51.378;-1.342;2023-05-23T06:30:45;101337.14;;;24.53;34.29
66396;BME280;53207;51.378;-1.342;2023-05-23T06:33:12;101334.87;;;24.95;34.50
66396;BME280;53207;51.378;-1.342;2023-05-23T06:35:39;101333.80;;;24.77;34.60
66396;BME280;53207;51.378;-1.342;2023-05-23T06:38:07;101335.41;;;24.96;34.99
66396;BME280;53207;51.378;-1.342;2023-05-23T06:40:35;101332.46;;;24.56;34.25
66396;BME280;53207;51.378;-1.342;2023-05-23T06:43:02;101327.99;;;24.55;34.77
66396;BME280;53207;51.378;-1.342;2023-05-23T06:45:29;101328.71;;;24.92;35.00
66396;BME280;53207;51.378;-1.342;2023-05-23T06:47:56;101327.02;;;24.75;34.70
66396;BME280;53207;51.378;-1.342;2023-05-23T06:50:23;101328.82;;;24.81;34.59
66396;BME280;53207;51.378;-1.342;2023-05-23T06:52:51;101330.41;;;24.81;34.36
66396;BME280;53207;51.378;-1.342;2023-05-23T06:55:18;101330.02;;;24.72;34.71
66396;BME280;53207;51.378;-1.342;2023-05-23T06:57:45;101326.69;;;24.58;34.54
66396;BME280;53207;51.378;-1.342;2023-05-23T07:00:13;101328.12;;;24.80;34.53
66396;BME280;53207;51.378;-1.342;2023-05-23T07:02:40;101327.40;;;24.84;34.49
66396;BME280;53207;51.378;-1.342;2023-05-23T07:05:08;101326.95;;;25.09;34.34
66396;BME280;53207;51.378;-1.342;2023-05-23T07:07:35;101328.87;;;24.65;34.13
66396;BME280;53207;51.378;-1.342;2023-05-23T07:10:02;101328.95;;;24.65;34.41
66396;BME280;53207;51.378;-1.342;2023-05-23T07:12:29;101328.87;;;24.90;34.45
66396;BME280;53207;51.378;-1.342;2023-05-23T07:14:56;101330.31;;;25.00;34.10
66396;BME280;53207;51.378;-1.342;2023-05-23T07:17:24;101330.98;;;24.92;34.25
66396;BME280;53207;51.378;-1.342;2023-05-23T07:19:51;101333.41;;;25.11;34.24
66396;BME280;53207;51.378;-1.342;2023-05-23T07:22:18;101336.92;;;25.17;34.25
66396;BME280;53207;51.378;-1.342;2023-05-23T07:24:45;101337.96;;;24.90;34.06
66396;BME280;53207;51.378;-1.342;2023-05-23T07:27:13;101338.62;;;24.91;34.16
66396;BME280;53207;51.378;-1.342;2023-05-23T07:29:40;101338.12;;;24.86;34.16
66396;BME280;53207;51.378;-1.342;2023-05-23T07:32:07;101340.71;;;24.85;34.05
66396;BME280;53207;51.378;-1.342;2023-05-23T07:34:34;101341.51;;;24.80;34.13
66396;BME280;53207;51.378;-1.342;2023-05-23T07:37:02;101339.51;;;24.62;34.03
66396;BME280;53207;51.378;-1.342;2023-05-23T07:39:29;101341.77;;;25.06;34.07
66396;BME280;53207;51.378;-1.342;2023-05-23T07:41:56;101344.04;;;24.57;33.98
66396;BME280;53207;51.378;-1.342;2023-05-23T07:44:23;101346.59;;;25.01;34.08
66396;BME280;53207;51.378;-1.342;2023-05-23T07:46:50;101346.44;;;24.67;33.78
66396;BME280;53207;51.378;-1.342;2023-05-23T07:49:18;101348.08;;;24.61;33.89
66396;BME280;53207;51.378;-1.342;2023-05-23T07:51:45;101348.87;;;24.85;33.94
66396;BME280;53207;51.378;-1.342;2023-05-23T07:54:12;101351.71;;;24.83;33.89
66396;BME280;53207;51.378;-1.342;2023-05-23T07:56:41;101353.91;;;25.02;33.89
66396;BME280;53207;51.378;-1.342;2023-05-23T07:59:08;101355.21;;;24.61;33.80
66396;BME280;53207;51.378;-1.342;2023-05-23T08:01:36;101353.11;;;24.87;33.76
66396;BME280;53207;51.378;-1.342;2023-05-23T08:04:03;101352.55;;;24.33;33.80
66396;BME280;53207;51.378;-1.342;2023-05-23T08:06:30;101345.71;;;24.85;33.77
66396;BME280;53207;51.378;-1.342;2023-05-23T08:08:58;101350.11;;;24.93;33.63
66396;BME280;53207;51.378;-1.342;2023-05-23T08:11:25;101349.03;;;24.61;33.70
66396;BME280;53207;51.378;-1.342;2023-05-23T08:13:53;101350.86;;;24.89;33.62
66396;BME280;53207;51.378;-1.342;2023-05-23T08:16:20;101352.60;;;24.90;33.62
66396;BME280;53207;51.378;-1.342;2023-05-23T08:18:47;101351.34;;;24.83;33.67
66396;BME280;53207;51.378;-1.342;2023-05-23T08:21:14;101350.80;;;24.93;33.52
66396;BME280;53207;51.378;-1.342;2023-05-23T08:23:41;101347.04;;;24.65;33.53
66396;BME280;53207;51.378;-1.342;2023-05-23T08:26:09;101347.51;;;24.94;33.44
66396;BME280;53207;51.378;-1.342;2023-05-23T08:28:36;101349.56;;;24.93;33.46
66396;BME280;53207;51.378;-1.342;2023-05-23T08:31:03;101349.60;;;24.73;33.36
66396;BME280;53207;51.378;-1.342;2023-05-23T08:33:30;101348.49;;;25.19;33.38
66396;BME280;53207;51.378;-1.342;2023-05-23T08:35:58;101347.12;;;25.14;33.42
66396;BME280;53207;51.378;-1.342;2023-05-23T08:38:25;101341.02;;;25.04;33.23
66396;BME280;53207;51.378;-1.342;2023-05-23T08:40:53;101341.37;;;25.10;33.44
66396;BME280;53207;51.378;-1.342;2023-05-23T08:43:22;101340.49;;;24.68;33.32
66396;BME280;53207;51.378;-1.342;2023-05-23T08:45:51;101343.44;;;24.65;33.36
66396;BME280;53207;51.378;-1.342;2023-05-23T08:48:19;101345.15;;;24.87;33.40
66396;BME280;53207;51.378;-1.342;2023-05-23T08:50:47;101337.86;;;24.93;33.27
66396;BME280;53207;51.378;-1.342;2023-05-23T08:53:15;101339.36;;;24.84;33.38
66396;BME280;53207;51.378;-1.342;2023-05-23T08:55:42;101342.12;;;25.10;33.31
66396;BME280;53207;51.378;-1.342;2023-05-23T08:58:10;101338.72;;;24.93;33.23
66396;BME280;53207;51.378;-1.342;2023-05-23T09:00:37;101341.60;;;24.59;33.23
66396;BME280;53207;51.378;-1.342;2023-05-23T09:03:04;101338.47;;;24.63;33.21
66396;BME280;53207;51.378;-1.342;2023-05-23T09:05:32;101330.15;;;24.91;33.12
66396;BME280;53207;51.378;-1.342;2023-05-23T09:07:59;101329.33;;;25.19;33.04
66396;BME280;53207;51.378;-1.342;2023-05-23T09:10:27;101330.80;;;24.93;33.09
66396;BME280;53207;51.378;-1.342;2023-05-23T09:12:54;101329.41;;;25.07;33.16
66396;BME280;53207;51.378;-1.342;2023-05-23T09:15:21;101329.58;;;24.74;32.98
66396;BME280;53207;51.378;-1.342;2023-05-23T09:17:49;101331.21;;;24.93;33.07
66396;BME280;53207;51.378;-1.342;2023-05-23T09:20:16;101332.67;;;25.20;32.94
66396;BME280;53207;51.378;-1.342;2023-05-23T09:22:46;101334.25;;;24.95;33.05
66396;BME280;53207;51.378;-1.342;2023-05-23T09:25:14;101336.26;;;25.29;32.82
66396;BME280;53207;51.378;-1.342;2023-05-23T09:27:42;101332.95;;;24.77;32.89
66396;BME280;53207;51.378;-1.342;2023-05-23T09:30:10;101329.75;;;24.77;32.94
66396;BME280;53207;51.378;-1.342;2023-05-23T09:32:38;101329.00;;;25.03;32.92
66396;BME280;53207;51.378;-1.342;2023-05-23T09:35:07;101332.32;;;24.83;32.89
66396;BME280;53207;51.378;-1.342;2023-05-23T09:37:35;101332.98;;;24.88;32.78
66396;BME280;53207;51.378;-1.342;2023-05-23T09:40:07;101332.64;;;24.88;32.80
66396;BME280;53207;51.378;-1.342;2023-05-23T09:42:40;101335.06;;;24.90;32.77
66396;BME280;53207;51.378;-1.342;2023-05-23T09:45:08;101340.75;;;25.19;32.75
66396;BME280;53207;51.378;-1.342;2023-05-23T09:47:35;101339.84;;;25.17;32.77
66396;BME280;53207;51.378;-1.342;2023-05-23T09:50:03;101343.66;;;25.01;32.62
66396;BME280;53207;51.378;-1.342;2023-05-23T09:52:35;101347.37;;;24.96;32.68
66396;BME280;53207;51.378;-1.342;2023-05-23T09:55:03;101348.63;;;24.83;32.54
66396;BME280;53207;51.378;-1.342;2023-05-23T09:57:33;101350.29;;;25.39;32.42
66396;BME280;53207;51.378;-1.342;2023-05-23T10:00:02;101348.38;;;25.09;32.50
66396;BME280;53207;51.378;-1.342;2023-05-23T10:02:52;101350.71;;;25.09;32.54
66396;BME280;53207;51.378;-1.342;2023-05-23T10:05:30;101351.88;;;25.19;32.38
66396;BME280;53207;51.378;-1.342;2023-05-23T10:08:01;101354.55;;;25.18;32.35
66396;BME280;53207;51.378;-1.342;2023-05-23T10:10:31;101359.91;;;25.26;32.31
66396;BME280;53207;51.378;-1.342;2023-05-23T10:13:01;101357.11;;;25.27;32.26
66396;BME280;53207;51.378;-1.342;2023-05-23T10:15:33;101357.83;;;25.32;32.25
66396;BME280;53207;51.378;-1.342;2023-05-23T10:18:08;101357.62;;;25.23;32.35
66396;BME280;53207;51.378;-1.342;2023-05-23T10:20:39;101359.66;;;25.54;32.31
66396;BME280;53207;51.378;-1.342;2023-05-23T10:23:09;101359.69;;;25.30;32.26
66396;BME280;53207;51.378;-1.342;2023-05-23T10:25:37;101354.92;;;25.26;32.29
66396;BME280;53207;51.378;-1.342;2023-05-23T10:28:05;101354.36;;;25.27;32.24
66396;BME280;53207;51.378;-1.342;2023-05-23T10:30:33;101353.50;;;25.24;32.27
66396;BME280;53207;51.378;-1.342;2023-05-23T10:33:02;101354.44;;;25.19;32.26
66396;BME280;53207;51.378;-1.342;2023-05-23T10:35:40;101360.09;;;25.16;32.29
66396;BME280;53207;51.378;-1.342;2023-05-23T10:38:15;101359.03;;;25.15;32.33
66396;BME280;53207;51.378;-1.342;2023-05-23T10:40:54;101362.56;;;25.15;32.31
66396;BME280;53207;51.378;-1.342;2023-05-23T10:43:30;101363.39;;;25.10;32.34
66396;BME280;53207;51.378;-1.342;2023-05-23T10:45:59;101364.63;;;25.08;32.34
66396;BME280;53207;51.378;-1.342;2023-05-23T10:48:32;101367.24;;;25.11;32.32
66396;BME280;53207;51.378;-1.342;2023-05-23T10:51:03;101364.15;;;25.09;32.32
66396;BME280;53207;51.378;-1.342;2023-05-23T10:53:31;101358.96;;;24.98;32.40
66396;BME280;53207;51.378;-1.342;2023-05-23T10:55:58;101356.04;;;25.03;32.35
66396;BME280;53207;51.378;-1.342;2023-05-23T10:58:28;101347.90;;;25.25;32.39
66396;BME280;53207;51.378;-1.342;2023-05-23T11:01:00;101350.43;;;25.02;32.35
66396;BME280;53207;51.378;-1.342;2023-05-23T11:03:36;101347.76;;;25.14;32.23
66396;BME280;53207;51.378;-1.342;2023-05-23T11:06:04;101349.55;;;25.18;32.14
66396;BME280;53207;51.378;-1.342;2023-05-23T11:08:39;101355.39;;;25.16;32.17
66396;BME280;53207;51.378;-1.342;2023-05-23T11:11:06;101360.43;;;25.19;32.17
66396;BME280;53207;51.378;-1.342;2023-05-23T11:14:06;101362.67;;;25.44;32.14
66396;BME280;53207;51.378;-1.342;2023-05-23T11:16:40;101358.01;;;25.24;32.08
66396;BME280;53207;51.378;-1.342;2023-05-23T11:19:27;101347.54;;;25.23;31.95
66396;BME280;53207;51.378;-1.342;2023-05-23T11:21:58;101352.76;;;25.52;32.03
66396;BME280;53207;51.378;-1.342;2023-05-23T11:24:47;101354.06;;;25.27;32.00
66396;BME280;53207;51.378;-1.342;2023-05-23T11:27:14;101360.04;;;25.35;31.92
66396;BME280;53207;51.378;-1.342;2023-05-23T11:29:42;101361.81;;;25.34;31.90
66396;BME280;53207;51.378;-1.342;2023-05-23T11:32:10;101363.04;;;25.37;31.92
66396;BME280;53207;51.378;-1.342;2023-05-23T11:34:37;101360.90;;;25.40;31.84
66396;BME280;53207;51.378;-1.342;2023-05-23T11:37:05;101362.43;;;25.41;31.86
66396;BME280;53207;51.378;-1.342;2023-05-23T11:39:32;101359.32;;;25.43;31.84
66396;BME280;53207;51.378;-1.342;2023-05-23T11:42:01;101362.99;;;25.49;31.80
66396;BME280;53207;51.378;-1.342;2023-05-23T11:44:28;101362.74;;;25.45;31.84
66396;BME280;53207;51.378;-1.342;2023-05-23T11:47:00;101359.84;;;25.23;31.82
66396;BME280;53207;51.378;-1.342;2023-05-23T11:49:28;101355.47;;;25.76;31.68
66396;BME280;53207;51.378;-1.342;2023-05-23T11:51:56;101354.55;;;25.49;31.70
66396;BME280;53207;51.378;-1.342;2023-05-23T11:54:24;101359.34;;;25.52;31.60
66396;BME280;53207;51.378;-1.342;2023-05-23T11:56:52;101357.41;;;25.52;31.65
66396;BME280;53207;51.378;-1.342;2023-05-23T11:59:20;101355.64;;;25.57;31.60
66396;BME280;53207;51.378;-1.342;2023-05-23T12:01:48;101352.17;;;25.53;31.65
66396;BME280;53207;51.378;-1.342;2023-05-23T12:04:15;101350.55;;;25.90;31.55
66396;BME280;53207;51.378;-1.342;2023-05-23T12:06:46;101355.52;;;25.65;31.55
66396;BME280;53207;51.378;-1.342;2023-05-23T12:09:14;101353.39;;;25.69;31.55
66396;BME280;53207;51.378;-1.342;2023-05-23T12:11:42;101354.35;;;25.73;31.51
66396;BME280;53207;51.378;-1.342;2023-05-23T12:14:14;101351.94;;;25.60;31.37
66396;BME280;53207;51.378;-1.342;2023-05-23T12:16:43;101349.19;;;25.64;31.17
66396;BME280;53207;51.378;-1.342;2023-05-23T12:19:11;101350.78;;;25.63;31.29
66396;BME280;53207;51.378;-1.342;2023-05-23T12:21:41;101359.11;;;25.62;31.31
66396;BME280;53207;51.378;-1.342;2023-05-23T12:24:13;101360.19;;;25.61;31.32
66396;BME280;53207;51.378;-1.342;2023-05-23T12:26:58;101362.17;;;25.57;31.39
66396;BME280;53207;51.378;-1.342;2023-05-23T12:29:29;101362.90;;;25.57;31.34
66396;BME280;53207;51.378;-1.342;2023-05-23T12:31:58;101359.71;;;25.60;31.34
66396;BME280;53207;51.378;-1.342;2023-05-23T12:34:26;101353.53;;;25.82;31.33
66396;BME280;53207;51.378;-1.342;2023-05-23T12:36:54;101349.57;;;25.84;31.33
66396;BME280;53207;51.378;-1.342;2023-05-23T12:39:24;101346.06;;;25.82;31.32
66396;BME280;53207;51.378;-1.342;2023-05-23T12:41:51;101348.69;;;25.59;31.32
66396;BME280;53207;51.378;-1.342;2023-05-23T12:44:18;101342.16;;;25.84;31.29
66396;BME280;53207;51.378;-1.342;2023-05-23T12:46:46;101337.92;;;25.66;31.09